Informes METAR cercanos

 

LEBZ - Talavera Ab/Bada, Spain
Distancia desde la estación: ONO 43km
Actualización: 04/04/2020 12:00
Despejado(0/8)
Despejado(0/8)
 Viento del ESE
Viento: ESE 26 km/h
Temperatura: 16°C
Rocío: 9°C
Humedad: 63%
Barómetro: 1013 hPa
Resumen: Despejado , 0/8
Visibilidad: Superior a 10 km
2020/04/04 10:00 LEBZ 041000Z AUTO 11014KT 080V140 CAVOK 16/09 Q1013